KCOS/COS METAR and TAF weather

Enter ICAO airport designator
Station Type Date Time Source
KCOS METAR 2019/05/25 08:54 UTC NOAA

KCOS 250854Z 35008KT 10SM FEW140 06/M02 A3004 RMK AO2 SLP123 T00611017 51005


Station Type Date Time Source
KCOS Decoded METAR 2019/05/25 08:54 UTC NOAA

COLORADO SPRINGS MUNI, CO, United States (KCOS) 38-49N 104-43W 1856M
May 25, 2019 - 04:54 AM EDT / 2019.05.25 0854 UTC
Wind: from the N (350 degrees) at 9 MPH (8 KT):0
Visibility: 10 mile(s):0
Sky conditions: mostly clear
Temperature: 43.0 F (6.1 C)
Dew Point: 28.9 F (-1.7 C)
Relative Humidity: 57%
Pressure (altimeter): 30.04 in. Hg (1017 hPa)
Pressure tendency: 0.01 inches (0.5 hPa) higher than three hours ago
ob: KCOS 250854Z 35008KT 10SM FEW140 06/M02 A3004 RMK AO2 SLP123 T00611017 51005
cycle: 9

Station Type Date Time Source
KCOS TAF 2019/05/25 06:30 UTC NOAA

TAF KCOS 250529Z 2506/2606 34009KT P6SM SKC
FM251500 16008KT P6SM FEW150
FM251900 17015G25KT P6SM SCT150
FM260100 02008KT P6SM SCT150

Example: see airport list